CW0334 Weather Reports


time (UTC)temp
C
wind
direction
speed
KPH
gust
KPH
rain 1hr
cm
rain 24hr
cm
rain mn
cm
humidity
%
barometer
mb
20191021205309 11 342 0.0 0.0 0.00 0.00 0.00 92 1021.4
20191021204309 11 342 0.0 0.0 0.00 0.00 0.00 92 1021.3
20191021203309 11 342 0.0 0.0 0.00 0.00 0.00 91 1021.3
20191021202309 11 342 0.0 0.0 0.00 0.00 0.00 91 1021.2
20191021194309 12 342 0.0 0.0 0.00 0.00 0.00 90 1020.8
20191021193309 12 342 0.0 0.0 0.00 0.00 0.00 90 1020.7
20191021192309 12 342 0.0 0.0 0.00 0.00 0.00 89 1020.7
20191021191309 12 344 0.0 0.0 0.00 0.00 0.00 89 1020.3
20191021190310 12 344 0.0 0.0 0.00 0.00 0.00 89 1020.2
20191021185309 12 344 0.0 0.0 0.00 0.00 0.00 89 1020.4
20191021181310 13 8 0.0 1.6 0.00 0.00 0.00 86 1019.8
20191021180309 13 8 0.0 0.0 0.00 0.00 0.00 86 1020.0
20191021173309 13 8 0.0 0.0 0.00 0.00 0.00 83 1019.6
20191021171310 14 8 1.6 3.2 0.00 0.00 0.00 82 1019.1
20191021165310 15 8 0.0 0.0 0.00 0.00 0.00 75 1018.8
20191021164309 15 8 1.6 3.2 0.00 0.00 0.00 75 1018.8
20191021163310 16 8 0.0 0.0 0.00 0.00 0.00 75 1018.2
20191021161310 16 8 0.0 1.6 0.00 0.00 0.00 74 1018.0
20191021153309 17 357 0.0 3.2 0.00 0.00 0.00 70 1017.9
20191021152311 18 18 1.6 3.2 0.00 0.00 0.00 68 1017.4
20191021151309 18 1 4.8 6.4 0.00 0.00 0.00 64 1017.5
20191021150311 18 54 3.2 8.0 0.00 0.00 0.00 64 1017.5
20191021144310 18 352 1.6 4.8 0.00 0.00 0.00 64 1017.7
20191021143310 18 313 1.6 4.8 0.00 0.00 0.00 63 1017.8
20191021142310 19 304 3.2 4.8 0.00 0.00 0.00 61 1017.7
20191021140309 19 306 1.6 4.8 0.00 0.00 0.00 61 1017.6
20191021135310 20 284 3.2 4.8 0.00 0.00 0.00 58 1017.3
20191021133310 20 258 4.8 6.4 0.00 0.00 0.00 56 1017.1
20191021132311 20 265 4.8 8.0 0.00 0.00 0.00 56 1017.1
20191021131310 20 301 1.6 6.4 0.00 0.00 0.00 56 1016.9
20191021124310 19 275 1.6 6.4 0.00 0.00 0.00 61 1017.1
20191021122310 19 323 1.6 4.8 0.00 0.00 0.00 61 1017.0
20191021121310 19 316 3.2 3.2 0.00 0.00 0.00 61 1017.0
20191021120310 19 320 1.6 4.8 0.00 0.00 0.00 61 1017.2
20191021115310 18 42 1.6 9.7 0.00 0.00 0.00 65 1017.3
20191021114310 17 320 4.8 4.8 0.00 0.00 0.00 69 1017.2
20191021113310 17 44 1.6 9.7 0.00 0.00 0.00 69 1017.5
20191021112310 16 4 6.4 8.0 0.00 0.00 0.00 69 1017.3
20191021111310 16 16 9.7 11.3 0.00 0.00 0.00 72 1017.3
20191021110310 16 3 3.2 8.0 0.00 0.00 0.00 72 1017.4
20191021105310 16 23 1.6 8.0 0.00 0.00 0.00 71 1017.2
20191021103311 16 49 4.8 8.0 0.00 0.00 0.00 71 1017.0
20191021102310 15 32 3.2 4.8 0.00 0.00 0.00 72 1017.1
20191021095310 15 55 3.2 9.7 0.00 0.00 0.00 71 1016.5
20191021094310 15 51 3.2 4.8 0.00 0.00 0.00 76 1016.6
20191021093310 15 44 4.8 9.7 0.00 0.00 0.00 76 1017.0
20191021092311 14 64 1.6 4.8 0.00 0.00 0.00 76 1017.1
20191021091310 13 332 0.0 3.2 0.00 0.00 0.00 78 1017.2
20191021090310 13 289 0.0 0.0 0.00 0.00 0.00 79 1017.5
20191021085310 13 289 0.0 0.0 0.00 0.00 0.00 78 1017.5
20191021084311 13 289 1.6 4.8 0.00 0.00 0.00 78 1017.0
20191021083310 13 20 0.0 0.0 0.00 0.00 0.00 77 1016.7
20191021081311 13 359 3.2 4.8 0.00 0.00 0.00 78 1016.7
20191021080312 13 359 3.2 3.2 0.00 0.00 0.00 77 1016.5
20191021075311 13 360 0.0 3.2 0.00 0.00 0.00 77 1016.6
20191021074310 13 306 0.0 0.0 0.00 0.00 0.00 77 1016.4
20191021073311 13 306 0.0 1.6 0.00 0.00 0.00 77 1016.1
20191021072310 13 306 0.0 3.2 0.00 0.00 0.00 75 1016.1
20191021065311 13 357 0.0 0.0 0.00 0.00 0.00 74 1016.6
20191021064312 13 357 1.6 1.6 0.00 0.00 0.00 74 1016.4
20191021061310 13 357 0.0 1.6 0.00 0.00 0.00 67 1015.5
20191021060312 14 357 0.0 3.2 0.00 0.00 0.00 67 1015.4
20191021055311 14 344 0.0 3.2 0.00 0.00 0.00 65 1015.0
20191021050310 16 301 4.8 9.7 0.00 0.00 0.00 58 1013.7
20191021040310 17 189 1.6 4.8 0.00 0.00 0.00 54 1012.0
20191021035310 17 241 1.6 4.8 0.00 0.00 0.00 53 1011.8
20191021033311 17 217 4.8 12.9 0.00 0.00 0.00 52 1011.3
20191021032310 17 233 6.4 11.3 0.00 0.00 0.00 52 1011.2
20191021030310 17 236 8.0 16.1 0.00 0.00 0.00 52 1011.1
20191021023310 17 250 3.2 9.7 0.00 0.00 0.00 54 1011.2
20191021021311 17 206 6.4 11.3 0.00 0.00 0.00 55 1011.0
20191021020309 16 208 3.2 9.7 0.00 0.00 0.00 55 1010.7
20191021014309 16 229 8.0 12.9 0.00 0.00 0.00 56 1010.5
20191021012309 16 196 1.6 8.0 0.00 0.00 0.00 55 1010.4
20191021011309 17 210 3.2 3.2 0.00 0.00 0.00 54 1010.0
20191021010308 17 215 0.0 8.0 0.00 0.00 0.00 54 1010.0
20191021004308 17 223 3.2 11.3 0.00 0.00 0.00 54 1010.1
20191021003308 17 150 8.0 11.3 0.00 0.00 0.00 54 1010.0
20191021001308 17 182 8.0 11.3 0.00 0.00 0.00 54 1009.9
20191021000308 17 220 3.2 9.7 0.00 0.00 0.00 52 1009.8
20191020235308 18 227 3.2 8.0 0.00 0.00 0.00 52 1009.7
20191020222309 17 157 1.6 3.2 0.00 0.00 0.00 56 1009.6
20191020221310 17 157 1.6 3.2 0.00 0.00 0.00 55 1009.4
20191020220309 17 157 0.0 1.6 0.00 0.00 0.00 51 1009.1
20191020215309 17 184 3.2 4.8 0.00 0.00 0.00 51 1009.2
20191020214309 17 164 3.2 9.7 0.00 0.00 0.00 50 1009.1
20191020212309 17 213 4.8 11.3 0.00 0.00 0.00 52 1009.1